createdAt,value
2018-12-04T00:00:44.390Z,96749.97
2018-12-04T00:03:12.628Z,96751.59
2018-12-04T00:05:40.886Z,96748.27
2018-12-04T00:08:09.200Z,96751.69
2018-12-04T00:10:37.458Z,96749.02
2018-12-04T00:13:05.696Z,96752.85
2018-12-04T00:15:33.982Z,96759.49
2018-12-04T00:18:02.326Z,96766.33
2018-12-04T00:20:30.571Z,96771.39
2018-12-04T00:22:58.838Z,96773.69
2018-12-04T00:25:27.084Z,96765.95
2018-12-04T00:27:55.379Z,96774.85
2018-12-04T00:30:23.709Z,96778.13
2018-12-04T00:32:52.056Z,96776.18
2018-12-04T00:35:20.324Z,96787.75
2018-12-04T00:37:48.604Z,96797.27
2018-12-04T00:40:16.850Z,96803.94
2018-12-04T00:42:45.097Z,96806.48
2018-12-04T00:45:13.362Z,96815.48
2018-12-04T00:47:41.607Z,96818.42
2018-12-04T00:50:09.981Z,96824.10
2018-12-04T00:52:38.245Z,96813.38
2018-12-04T00:55:06.725Z,96813.83
2018-12-04T00:57:34.989Z,96815.93
2018-12-04T01:00:05.313Z,96815.05
2018-12-04T01:02:33.556Z,96827.22
2018-12-04T01:05:01.817Z,96831.16
2018-12-04T01:07:30.057Z,96832.49
2018-12-04T01:09:58.304Z,96854.34
2018-12-04T01:12:26.560Z,96850.05
2018-12-04T01:17:36.312Z,96869.08
2018-12-04T01:20:06.245Z,96876.30
2018-12-04T01:22:34.497Z,96883.67
2018-12-04T01:25:02.829Z,96896.06
2018-12-04T01:27:31.078Z,96906.89
2018-12-04T01:29:59.338Z,96915.88
2018-12-04T01:32:27.600Z,96917.95
2018-12-04T01:34:55.864Z,96919.81
2018-12-04T01:37:24.122Z,96921.48
2018-12-04T01:39:52.386Z,96935.89
2018-12-04T01:42:20.636Z,96944.40
2018-12-04T01:44:48.917Z,96948.23
2018-12-04T01:47:17.173Z,96957.28
2018-12-04T01:49:45.458Z,96956.04
2018-12-04T01:52:13.723Z,96972.73
2018-12-04T01:54:42.056Z,96982.66
2018-12-04T01:57:10.313Z,96994.95
2018-12-04T01:59:38.568Z,97001.34
2018-12-04T02:02:06.844Z,97010.85
2018-12-04T02:04:35.192Z,97013.25
2018-12-04T02:07:03.592Z,97021.72
2018-12-04T02:09:31.920Z,97030.85
2018-12-04T02:12:00.189Z,97038.12
2018-12-04T02:14:28.455Z,97036.98
2018-12-04T02:16:56.752Z,97061.36
2018-12-04T02:19:25.012Z,97073.02
2018-12-04T02:21:53.264Z,97074.79
2018-12-04T02:24:21.516Z,97090.44
2018-12-04T02:26:49.808Z,97097.81
2018-12-04T02:29:18.056Z,97106.85
2018-12-04T02:31:46.316Z,97113.39
2018-12-04T02:34:14.648Z,97124.94
2018-12-04T02:36:42.897Z,97134.80
2018-12-04T02:39:11.159Z,97140.04
2018-12-04T02:41:39.519Z,97141.38
2018-12-04T02:44:07.779Z,97155.91
2018-12-04T02:46:36.024Z,97174.20
2018-12-04T02:49:04.296Z,97177.20
2018-12-04T02:51:32.550Z,97185.27
2018-12-04T02:54:00.801Z,97189.52
2018-12-04T02:56:29.076Z,97194.66
2018-12-04T02:58:57.348Z,97199.78
2018-12-04T03:01:25.611Z,97215.89
2018-12-04T03:03:53.889Z,97223.98
2018-12-04T03:06:22.232Z,97220.58
2018-12-04T03:08:50.485Z,97228.67
2018-12-04T03:11:18.759Z,97232.50
2018-12-04T03:13:47.012Z,97245.22
2018-12-04T03:16:15.426Z,97249.87
2018-12-04T03:18:43.737Z,97261.75
2018-12-04T03:21:12.035Z,97266.86
2018-12-04T03:23:40.354Z,97274.91
2018-12-04T03:26:08.708Z,97272.38
2018-12-04T03:28:36.963Z,97276.60
2018-12-04T03:31:05.221Z,97281.70
2018-12-04T03:33:37.918Z,97285.09
2018-12-04T03:36:06.311Z,97294.00
2018-12-04T03:38:34.674Z,97294.84
2018-12-04T03:41:03.267Z,97294.81
2018-12-04T03:43:31.603Z,97295.27
2018-12-04T03:45:59.964Z,97295.67
2018-12-04T03:48:28.374Z,97310.52
2018-12-04T03:50:56.658Z,97311.38
2018-12-04T03:53:24.954Z,97321.53
2018-12-04T03:55:53.280Z,97331.28
2018-12-04T03:58:21.557Z,97336.41
2018-12-04T04:00:49.845Z,97341.48
2018-12-04T04:03:18.154Z,97356.73
2018-12-04T04:05:46.462Z,97357.16
2018-12-04T04:08:14.746Z,97363.95
2018-12-04T04:10:43.050Z,97362.23
2018-12-04T04:13:11.389Z,97373.27
2018-12-04T04:15:39.753Z,97370.30
2018-12-04T04:18:08.045Z,97381.33
2018-12-04T04:20:36.316Z,97382.61
2018-12-04T04:23:04.604Z,97388.13
2018-12-04T04:25:32.920Z,97390.67
2018-12-04T04:28:01.229Z,97397.03
2018-12-04T04:30:29.532Z,97393.21
2018-12-04T04:32:57.850Z,97404.66
2018-12-04T04:35:26.166Z,97413.57
2018-12-04T04:37:54.456Z,97421.62
2018-12-04T04:40:22.754Z,97428.84
2018-12-04T04:42:51.058Z,97431.81
2018-12-04T04:45:19.457Z,97427.13
2018-12-04T04:47:47.782Z,97433.93
2018-12-04T04:50:16.058Z,97437.32
2018-12-04T04:52:44.364Z,97442.40
2018-12-04T04:55:12.697Z,97448.31
2018-12-04T04:57:40.995Z,97454.26
2018-12-04T05:00:09.422Z,97449.62
2018-12-04T05:02:37.710Z,97455.10
2018-12-04T05:05:06.119Z,97456.80
2018-12-04T05:07:34.426Z,97461.90
2018-12-04T05:10:02.919Z,97469.06
2018-12-04T05:12:31.182Z,97470.34
2018-12-04T05:14:59.456Z,97477.14
2018-12-04T05:17:27.721Z,97480.08
2018-12-04T05:19:55.972Z,97479.63
2018-12-04T05:22:24.249Z,97482.52
2018-12-04T05:24:52.531Z,97475.69
2018-12-04T05:27:20.804Z,97458.22
2018-12-04T05:29:49.106Z,97486.16
2018-12-04T05:32:17.419Z,97506.00
2018-12-04T05:34:45.711Z,97514.05
2018-12-04T05:37:14.037Z,97516.95
2018-12-04T05:39:42.318Z,97526.22
2018-12-04T05:42:10.606Z,97540.53
2018-12-04T05:44:38.937Z,97541.80
2018-12-04T05:47:07.245Z,97542.65
2018-12-04T05:49:35.499Z,97557.88
2018-12-04T05:52:03.763Z,97565.86
2018-12-04T05:54:32.022Z,97567.98
2018-12-04T05:57:01.259Z,97571.88
2018-12-04T05:59:29.517Z,97588.78
2018-12-04T06:01:57.792Z,97587.45
2018-12-04T06:04:26.049Z,97586.50
2018-12-04T06:06:54.321Z,97589.46
2018-12-04T06:09:22.568Z,97596.94
2018-12-04T06:11:50.830Z,97605.78
2018-12-04T06:14:19.100Z,97603.66
2018-12-04T06:16:47.359Z,97611.52
2018-12-04T06:19:15.605Z,97610.54
2018-12-04T06:21:43.892Z,97611.59
2018-12-04T06:24:12.133Z,97623.80
2018-12-04T06:26:40.399Z,97637.28
2018-12-04T06:29:08.643Z,97634.73
2018-12-04T06:31:36.904Z,97650.49
2018-12-04T06:34:05.249Z,97657.64
2018-12-04T06:36:33.493Z,97664.81
2018-12-04T06:39:01.746Z,97666.34
2018-12-04T06:41:30.113Z,97666.82
2018-12-04T06:43:58.362Z,97670.61
2018-12-04T06:46:26.621Z,97684.51
2018-12-04T06:48:54.898Z,97696.47
2018-12-04T06:51:23.152Z,97705.98
2018-12-04T06:53:51.447Z,97707.36
2018-12-04T06:56:19.693Z,97714.70
2018-12-04T06:58:47.944Z,97715.89
2018-12-04T07:01:16.217Z,97729.19
2018-12-04T07:03:44.464Z,97734.88
2018-12-04T07:06:12.725Z,97741.14
2018-12-04T07:08:40.988Z,97743.30
2018-12-04T07:11:09.241Z,97743.20
2018-12-04T07:13:37.508Z,97754.16
2018-12-04T07:16:05.787Z,97763.53
2018-12-04T07:18:34.093Z,97773.09
2018-12-04T07:21:02.350Z,97779.20
2018-12-04T07:23:30.652Z,97791.77
2018-12-04T07:25:58.954Z,97793.67
2018-12-04T07:28:27.232Z,97800.02
2018-12-04T07:30:55.541Z,97798.89
2018-12-04T07:33:23.840Z,97804.45
2018-12-04T07:35:52.215Z,97810.86
2018-12-04T07:38:20.531Z,97819.19
2018-12-04T07:40:48.925Z,97823.72
2018-12-04T07:43:17.226Z,97831.03
2018-12-04T07:45:45.585Z,97836.59
2018-12-04T07:48:13.890Z,97832.38
2018-12-04T07:50:42.196Z,97848.25
2018-12-04T07:53:10.481Z,97855.37
2018-12-04T07:55:38.808Z,97855.15
2018-12-04T07:58:07.117Z,97866.91
2018-12-04T08:00:35.489Z,97864.53
2018-12-04T08:03:03.763Z,97872.63
2018-12-04T08:05:32.032Z,97876.06
2018-12-04T08:08:00.362Z,97884.92
2018-12-04T08:10:28.640Z,97892.94
2018-12-04T08:12:56.949Z,97900.70
2018-12-04T08:15:25.240Z,97901.81
2018-12-04T08:17:53.582Z,97907.17
2018-12-04T08:20:21.905Z,97910.67
2018-12-04T08:22:50.191Z,97909.63
2018-12-04T08:25:18.592Z,97917.73
2018-12-04T08:27:47.766Z,97930.17
2018-12-04T08:30:16.032Z,97934.09
2018-12-04T08:32:44.284Z,97936.52
2018-12-04T08:35:12.579Z,97946.38
2018-12-04T08:37:40.887Z,97949.08
2018-12-04T08:40:09.288Z,97954.00
2018-12-04T08:42:37.545Z,97956.77
2018-12-04T08:45:06.623Z,97966.73
2018-12-04T08:47:34.888Z,97966.02
2018-12-04T08:50:03.308Z,97974.16
2018-12-04T08:52:31.573Z,97979.04
2018-12-04T08:54:59.837Z,97984.77
2018-12-04T08:57:28.090Z,97995.87
2018-12-04T08:59:56.334Z,97997.81
2018-12-04T09:02:24.599Z,97997.17
2018-12-04T09:04:52.844Z,97994.30
2018-12-04T09:07:21.094Z,97996.52
2018-12-04T09:09:49.353Z,98008.62
2018-12-04T09:12:17.603Z,98005.27
2018-12-04T09:14:45.836Z,98004.57
2018-12-04T09:17:14.109Z,98009.87
2018-12-04T09:19:42.432Z,98012.45
2018-12-04T09:22:10.726Z,98018.77
2018-12-04T09:24:39.047Z,98027.72
2018-12-04T09:27:07.396Z,98036.33
2018-12-04T09:29:35.863Z,98051.25
2018-12-04T09:32:04.144Z,98046.89
2018-12-04T09:34:32.392Z,98062.24
2018-12-04T09:37:00.750Z,98051.69
2018-12-04T09:39:29.016Z,98056.98
2018-12-04T09:41:57.252Z,98063.73
2018-12-04T09:44:25.680Z,98074.41
2018-12-04T09:46:53.899Z,98074.45
2018-12-04T09:49:22.149Z,98088.58
2018-12-04T09:51:50.417Z,98087.22
2018-12-04T09:54:18.667Z,98085.23
2018-12-04T09:56:46.901Z,98103.05
2018-12-04T09:59:15.227Z,98100.73
2018-12-04T10:01:43.596Z,98114.05
2018-12-04T10:04:11.861Z,98121.80
2018-12-04T10:06:40.109Z,98132.09
2018-12-04T10:11:50.013Z,98122.04
2018-12-04T10:16:51.804Z,98132.34
2018-12-04T10:19:20.147Z,98142.77
2018-12-04T10:21:48.430Z,98145.16
2018-12-04T10:24:16.734Z,98130.46
2018-12-04T10:29:28.498Z,98144.12
2018-12-04T10:31:56.840Z,98153.59
2018-12-04T10:34:25.118Z,98159.17
2018-12-04T10:36:53.353Z,98163.40
2018-12-04T10:39:21.678Z,98167.80
2018-12-04T10:41:50.017Z,98171.84
2018-12-04T10:44:18.309Z,98173.63
2018-12-04T10:46:46.594Z,98170.48
2018-12-04T10:49:14.848Z,98174.30
2018-12-04T10:51:43.102Z,98174.30
2018-12-04T10:54:11.428Z,98174.05
2018-12-04T10:56:39.676Z,98169.76
2018-12-04T10:59:07.924Z,98176.59
2018-12-04T11:04:40.499Z,98190.80
2018-12-04T11:07:08.758Z,98188.98
2018-12-04T11:09:37.021Z,98185.21
2018-12-04T11:12:05.272Z,98187.41
2018-12-04T11:14:33.526Z,98194.50
2018-12-04T11:17:01.787Z,98195.78
2018-12-04T11:19:30.031Z,98196.77
2018-12-04T11:21:58.297Z,98196.92
2018-12-04T11:24:26.553Z,98201.13
2018-12-04T11:26:54.813Z,98210.09
2018-12-04T11:29:23.056Z,98217.69
2018-12-04T11:31:51.382Z,98211.67
2018-12-04T11:34:19.645Z,98216.84
2018-12-04T11:36:47.908Z,98215.17
2018-12-04T11:39:16.172Z,98231.47
2018-12-04T11:41:44.573Z,98224.98
2018-12-04T11:44:12.913Z,98225.92
2018-12-04T11:46:41.215Z,98223.49
2018-12-04T11:49:09.476Z,98227.47
2018-12-04T11:51:37.749Z,98231.50
2018-12-04T11:54:06.018Z,98240.78
2018-12-04T11:56:34.283Z,98245.53
2018-12-04T11:59:03.149Z,98253.95
2018-12-04T12:01:31.597Z,98249.02
2018-12-04T12:03:59.840Z,98254.68
2018-12-04T12:06:28.096Z,98263.50
2018-12-04T12:08:56.461Z,98277.84
2018-12-04T12:11:24.756Z,98277.04
2018-12-04T12:13:53.061Z,98274.08
2018-12-04T12:16:21.304Z,98285.47
2018-12-04T12:18:49.623Z,98281.08
2018-12-04T12:21:17.905Z,98284.81
2018-12-04T12:23:46.198Z,98289.29
2018-12-04T12:26:14.493Z,98292.04
2018-12-04T12:28:42.789Z,98296.75
2018-12-04T12:31:11.209Z,98293.97
2018-12-04T12:33:39.488Z,98300.53
2018-12-04T12:36:07.822Z,98312.20
2018-12-04T12:38:36.073Z,98322.05
2018-12-04T12:41:04.373Z,98327.58
2018-12-04T12:43:32.636Z,98334.10
2018-12-04T12:46:00.956Z,98336.59
2018-12-04T12:48:29.224Z,98334.09
2018-12-04T12:50:57.472Z,98332.98
2018-12-04T12:53:25.746Z,98333.41
2018-12-04T12:55:54.024Z,98336.45
2018-12-04T12:58:22.266Z,98339.75
2018-12-04T13:00:50.532Z,98338.09
2018-12-04T13:03:18.780Z,98347.66
2018-12-04T13:05:47.100Z,98352.75
2018-12-04T13:08:15.377Z,98349.67
2018-12-04T13:10:43.643Z,98345.36
2018-12-04T13:13:11.997Z,98346.89
2018-12-04T13:15:40.242Z,98344.98
2018-12-04T13:18:08.507Z,98346.03
2018-12-04T13:20:36.775Z,98347.66
2018-12-04T13:23:05.200Z,98352.15
2018-12-04T13:25:33.600Z,98352.16
2018-12-04T13:28:01.961Z,98352.94
2018-12-04T13:30:30.367Z,98361.30
2018-12-04T13:32:58.630Z,98361.42
2018-12-04T13:35:26.986Z,98366.12
2018-12-04T13:37:55.345Z,98362.00
2018-12-04T13:40:23.670Z,98360.13
2018-12-04T13:42:51.948Z,98357.48
2018-12-04T13:45:20.281Z,98367.86
2018-12-04T13:47:49.620Z,98368.00
2018-12-04T13:50:17.953Z,98379.73
2018-12-04T13:52:46.284Z,98382.27
2018-12-04T13:55:14.683Z,98395.67
2018-12-04T13:57:43.021Z,98401.41
2018-12-04T14:00:11.480Z,98405.06
2018-12-04T14:02:39.850Z,98408.64
2018-12-04T14:05:08.262Z,98415.19
2018-12-04T14:07:36.650Z,98418.35
2018-12-04T14:10:07.378Z,98423.42
2018-12-04T14:12:35.730Z,98425.08
2018-12-04T14:15:04.185Z,98428.39
2018-12-04T14:17:33.331Z,98431.39
2018-12-04T14:20:01.688Z,98438.59
2018-12-04T14:22:30.027Z,98438.05
2018-12-04T14:24:58.366Z,98438.94
2018-12-04T14:27:26.634Z,98445.51
2018-12-04T14:29:54.969Z,98449.32
2018-12-04T14:32:23.344Z,98455.68
2018-12-04T14:34:51.592Z,98456.97
2018-12-04T14:37:19.885Z,98462.42
2018-12-04T14:39:48.205Z,98458.61
2018-12-04T14:42:16.458Z,98462.03
2018-12-04T14:44:44.809Z,98466.94
2018-12-04T14:47:13.174Z,98472.41
2018-12-04T14:49:41.537Z,98476.24
2018-12-04T14:52:09.869Z,98483.63
2018-12-04T14:54:38.158Z,98488.95
2018-12-04T14:57:06.500Z,98489.77
2018-12-04T14:59:34.857Z,98497.80
2018-12-04T15:02:03.342Z,98496.02
2018-12-04T15:04:31.626Z,98508.72
2018-12-04T15:06:59.980Z,98519.94
2018-12-04T15:09:28.356Z,98517.96
2018-12-04T15:11:56.682Z,98521.58
2018-12-04T15:14:24.931Z,98522.98
2018-12-04T15:16:55.129Z,98526.52
2018-12-04T15:19:23.451Z,98537.23
2018-12-04T15:21:51.743Z,98538.64
2018-12-04T15:24:20.077Z,98547.38
2018-12-04T15:26:48.477Z,98548.49
2018-12-04T15:29:16.740Z,98553.41
2018-12-04T15:31:45.098Z,98555.73
2018-12-04T15:34:13.428Z,98559.54
2018-12-04T15:36:41.680Z,98564.73
2018-12-04T15:39:10.092Z,98570.66
2018-12-04T15:41:38.471Z,98568.86
2018-12-04T15:44:06.767Z,98570.88
2018-12-04T15:46:35.118Z,98572.03
2018-12-04T15:49:03.554Z,98574.03
2018-12-04T15:51:31.800Z,98578.02
2018-12-04T15:54:00.146Z,98585.56
2018-12-04T15:56:28.508Z,98593.34
2018-12-04T15:58:56.754Z,98591.47
2018-12-04T16:01:25.005Z,98593.88
2018-12-04T16:03:53.431Z,98595.02
2018-12-04T16:06:21.680Z,98586.70
2018-12-04T16:08:49.984Z,98591.53
2018-12-04T16:11:18.303Z,98592.98
2018-12-04T16:13:46.551Z,98603.88
2018-12-04T16:16:14.805Z,98603.74
2018-12-04T16:18:43.065Z,98617.51
2018-12-04T16:21:11.329Z,98623.77
2018-12-04T16:23:39.586Z,98627.47
2018-12-04T16:26:07.841Z,98634.05
2018-12-04T16:28:36.086Z,98639.72
2018-12-04T16:31:04.350Z,98643.02
2018-12-04T16:33:32.600Z,98647.53
2018-12-04T16:36:00.917Z,98643.55
2018-12-04T16:38:29.291Z,98653.05
2018-12-04T16:40:57.541Z,98651.77
2018-12-04T16:43:25.808Z,98662.36
2018-12-04T16:45:54.084Z,98660.08
2018-12-04T16:48:22.357Z,98661.17
2018-12-04T16:50:50.609Z,98655.09
2018-12-04T16:53:18.868Z,98654.77
2018-12-04T16:55:47.140Z,98655.66
2018-12-04T16:58:15.393Z,98653.55
2018-12-04T17:00:43.700Z,98656.80
2018-12-04T17:03:11.961Z,98665.36
2018-12-04T17:05:40.221Z,98662.21
2018-12-04T17:08:08.510Z,98663.39
2018-12-04T17:10:36.774Z,98673.00
2018-12-04T17:13:05.036Z,98671.94
2018-12-04T17:15:33.343Z,98672.75
2018-12-04T17:18:01.617Z,98680.61
2018-12-04T17:20:29.884Z,98680.08
2018-12-04T17:22:58.138Z,98682.60
2018-12-04T17:25:26.406Z,98682.96
2018-12-04T17:27:54.677Z,98683.36
2018-12-04T17:30:22.981Z,98689.83
2018-12-04T17:32:51.510Z,98695.45
2018-12-04T17:35:19.766Z,98694.73
2018-12-04T17:37:48.037Z,98692.08
2018-12-04T17:40:16.297Z,98690.17
2018-12-04T17:42:44.551Z,98690.26
2018-12-04T17:45:12.818Z,98691.22
2018-12-04T17:47:41.069Z,98689.03
2018-12-04T17:50:09.400Z,98691.84
2018-12-04T17:52:37.728Z,98689.12
2018-12-04T17:55:06.569Z,98697.68
2018-12-04T17:57:34.840Z,98696.82
2018-12-04T18:00:03.924Z,98693.53
2018-12-04T18:02:32.225Z,98701.59
2018-12-04T18:05:00.493Z,98705.71
2018-12-04T18:07:28.745Z,98705.38
2018-12-04T18:09:57.017Z,98711.12
2018-12-04T18:12:25.352Z,98710.76
2018-12-04T18:14:53.643Z,98713.02
2018-12-04T18:17:21.973Z,98716.37
2018-12-04T18:19:50.313Z,98720.06
2018-12-04T18:22:20.378Z,98719.20
2018-12-04T18:24:49.096Z,98722.13
2018-12-04T18:27:17.361Z,98720.81
2018-12-04T18:29:45.781Z,98727.13
2018-12-04T18:32:14.030Z,98728.16
2018-12-04T18:34:42.427Z,98727.12
2018-12-04T18:37:10.711Z,98727.57
2018-12-04T18:39:39.103Z,98733.55
2018-12-04T18:42:07.484Z,98738.22
2018-12-04T18:44:35.830Z,98744.84
2018-12-04T18:47:04.319Z,98745.59
2018-12-04T18:49:33.036Z,98745.77
2018-12-04T18:52:01.584Z,98745.42
2018-12-04T18:54:30.153Z,98755.30
2018-12-04T18:56:59.184Z,98745.69
2018-12-04T18:59:27.650Z,98747.64
2018-12-04T19:01:56.436Z,98751.98
2018-12-04T19:04:24.963Z,98753.80
2018-12-04T19:06:53.758Z,98768.06
2018-12-04T19:09:22.299Z,98767.76
2018-12-04T19:11:50.945Z,98767.96
2018-12-04T19:14:19.259Z,98770.23
2018-12-04T19:16:47.809Z,98773.36
2018-12-04T19:19:16.681Z,98773.56
2018-12-04T19:21:45.525Z,98777.48
2018-12-04T19:24:14.039Z,98777.94
2018-12-04T19:26:42.570Z,98789.17
2018-12-04T19:29:10.994Z,98789.98
2018-12-04T19:31:39.422Z,98788.97
2018-12-04T19:34:08.533Z,98798.00
2018-12-04T19:36:37.026Z,98800.31
2018-12-04T19:39:08.266Z,98809.04
2018-12-04T19:41:37.593Z,98821.98
2018-12-04T19:44:06.791Z,98823.45
2018-12-04T19:46:36.189Z,98825.30
2018-12-04T19:49:05.426Z,98832.78
2018-12-04T19:51:34.540Z,98839.23
2018-12-04T19:54:03.963Z,98839.89
2018-12-04T19:56:33.184Z,98841.83
2018-12-04T19:59:02.522Z,98844.92
2018-12-04T20:01:31.997Z,98852.70
2018-12-04T20:04:01.265Z,98848.14
2018-12-04T20:06:30.476Z,98854.41
2018-12-04T20:08:59.796Z,98853.47
2018-12-04T20:11:29.081Z,98861.09
2018-12-04T20:13:59.065Z,98862.77
2018-12-04T20:16:29.151Z,98865.41
2018-12-04T20:18:58.343Z,98868.17
2018-12-04T20:21:27.593Z,98872.91
2018-12-04T20:23:57.957Z,98874.48
2018-12-04T20:26:27.178Z,98874.55
2018-12-04T20:28:57.479Z,98881.80
2018-12-04T20:31:26.811Z,98883.76
2018-12-04T20:33:56.101Z,98882.58
2018-12-04T20:36:25.405Z,98883.53
2018-12-04T20:38:54.826Z,98885.96
2018-12-04T20:41:24.063Z,98891.16
2018-12-04T20:43:53.434Z,98891.88
2018-12-04T20:46:23.603Z,98894.30
2018-12-04T20:48:52.928Z,98890.05
2018-12-04T20:51:22.161Z,98883.04
2018-12-04T20:53:51.626Z,98876.59
2018-12-04T20:56:20.866Z,98885.73
2018-12-04T20:58:50.341Z,98886.28
2018-12-04T21:01:19.707Z,98887.31
2018-12-04T21:03:48.940Z,98890.23
2018-12-04T21:06:18.246Z,98886.53
2018-12-04T21:08:47.454Z,98890.77
2018-12-04T21:11:16.714Z,98895.97
2018-12-04T21:13:46.010Z,98894.39
2018-12-04T21:16:15.247Z,98897.31
2018-12-04T21:18:44.430Z,98903.77
2018-12-04T21:21:13.595Z,98909.73
2018-12-04T21:23:42.707Z,98908.32
2018-12-04T21:26:11.770Z,98860.35
2018-12-04T21:31:40.043Z,98911.39
2018-12-04T21:34:14.836Z,98911.50
2018-12-04T21:36:48.755Z,98908.81
2018-12-04T21:42:06.425Z,98914.95
2018-12-04T21:44:40.253Z,98919.82
2018-12-04T21:47:14.162Z,98920.12
2018-12-04T21:49:42.506Z,98925.42
2018-12-04T21:52:10.783Z,98920.62
2018-12-04T21:54:39.047Z,98917.69
2018-12-04T21:57:07.333Z,98919.05
2018-12-04T21:59:35.604Z,98916.20
2018-12-04T22:02:03.947Z,98913.84
2018-12-04T22:04:32.233Z,98916.19
2018-12-04T22:07:00.497Z,98920.61
2018-12-04T22:09:28.774Z,98929.88
2018-12-04T22:11:57.040Z,98928.56
2018-12-04T22:14:25.323Z,98934.55
2018-12-04T22:16:53.582Z,98935.09
2018-12-04T22:19:21.858Z,98928.48
2018-12-04T22:24:32.709Z,98932.08
2018-12-04T22:27:00.972Z,98932.25
2018-12-04T22:29:29.275Z,98936.83
2018-12-04T22:31:57.691Z,98944.59
2018-12-04T22:34:26.005Z,98943.27
2018-12-04T22:36:54.302Z,98945.92
2018-12-04T22:39:22.644Z,98945.22
2018-12-04T22:41:51.036Z,98943.27
2018-12-04T22:47:01.828Z,98949.26
2018-12-04T22:49:30.123Z,98946.73
2018-12-04T22:51:58.408Z,98947.75
2018-12-04T22:54:26.726Z,98938.52
2018-12-04T22:56:55.025Z,98941.30
2018-12-04T22:59:23.280Z,98942.31
2018-12-04T23:01:51.581Z,98949.40
2018-12-04T23:04:19.837Z,98949.17
2018-12-04T23:06:48.107Z,98952.95
2018-12-04T23:09:16.384Z,98956.80
2018-12-04T23:11:44.648Z,98954.41
2018-12-04T23:14:12.930Z,98959.84
2018-12-04T23:16:41.188Z,98952.55
2018-12-04T23:19:09.455Z,98949.31
2018-12-04T23:21:37.735Z,98944.77
2018-12-04T23:24:06.049Z,98950.04
2018-12-04T23:26:34.318Z,98949.17
2018-12-04T23:29:02.613Z,98948.22
2018-12-04T23:31:30.994Z,98942.55
2018-12-04T23:33:59.321Z,98938.54
2018-12-04T23:36:27.596Z,98929.95
2018-12-04T23:38:55.880Z,98928.94
2018-12-04T23:41:24.149Z,98936.03
2018-12-04T23:43:52.420Z,98940.03
2018-12-04T23:46:20.700Z,98934.69
2018-12-04T23:48:48.962Z,98935.09
2018-12-04T23:51:17.221Z,98934.76
2018-12-04T23:53:45.497Z,98932.34
2018-12-04T23:56:13.757Z,98926.59
2018-12-04T23:58:42.068Z,98930.59
